Time;durP1;ratioP1;P1;durP2;ratioP2;P2;SDS_P1;SDS_P2;PMS_P1;PMS_P2;Temp;Humidity;BMP_temperature;BMP_pressure;BME280_temperature;BME280_humidity;BME280_pressure;Samples;Min_cycle;Max_cycle;Signal;HPM_P1;HPM_P2
2023/03/13 00:01:47;;;;;;;;;;;;;;;;;;4935147;28;19918;-68
2023/03/13 00:04:17;;;;;;;;;;;;;;;;;;4924409;28;20002;-68
2023/03/13 00:06:43;;;;;;;;;;;;;;;;;;4927064;28;19929;-68
2023/03/13 00:09:08;;;;;;;;;;;;;;;;;;4936881;28;20298;-67
2023/03/13 00:11:36;;;;;;;;;;;;;;;;;;4938312;28;19993;-67
2023/03/13 00:14:01;;;;;;;;;;;;;;;;;;4935302;28;20356;-68
2023/03/13 00:16:29;;;;;;;;;;;;;;;;;;4939594;28;19918;-65
2023/03/13 00:18:54;;;;;;;;;;;;;;;;;;4966590;28;20286;-66
2023/03/13 00:21:20;;;;;;;;;;;;;;;;;;4943491;28;19919;-66
2023/03/13 00:23:45;;;;;;;;;;;;;;;;;;4920260;28;20004;-66
2023/03/13 00:26:10;;;;;;;;;;;;;;;;;;4924718;28;20427;-66
2023/03/13 00:28:35;;;;;;;;;;;;;;;;;;4947839;28;19918;-66
2023/03/13 00:31:01;;;;;;;;;;;;;;;;;;4929736;28;19933;-66
2023/03/13 00:33:26;;;;;;;;;;;;;;;;;;4966337;28;19930;-66
2023/03/13 00:35:51;;;;;;;;;;;;;;;;;;4923839;28;19964;-67
2023/03/13 00:38:16;;;;;;;;;;;;;;;;;;4949633;28;20029;-67
2023/03/13 00:40:42;;;;;;;;;;;;;;;;;;4932480;28;20435;-66
2023/03/13 00:43:10;;;;;;;;;;;;;;;;;;4938326;28;20020;-67
2023/03/13 00:45:35;;;;;;;;;;;;;;;;;;4924462;28;19926;-67
2023/03/13 00:48:01;;;;;;;;;;;;;;;;;;4935676;28;19923;-66
2023/03/13 00:50:26;;;;;;;;;;;;;;;;;;4935747;28;20471;-66
2023/03/13 00:52:51;;;;;;;;;;;;;;;;;;4933682;28;19918;-66
2023/03/13 00:55:19;;;;;;;;;;;;;;;;;;4934577;28;19918;-65
2023/03/13 00:57:44;;;;;;;;;;;;;;;;;;4933165;28;20433;-64
2023/03/13 01:00:09;;;;;;;;;;;;;;;;;;4930748;28;20008;-66
2023/03/13 01:02:35;;;;;;;;;;;;;;;;;;4936358;28;20480;-67
2023/03/13 01:05:03;;;;;;;;;;;;;;;;;;4946821;28;19922;-66
2023/03/13 01:07:30;;;;;;;;;;;;;;;;;;4916425;28;20372;-66
2023/03/13 01:09:58;;;;;;;;;;;;;;;;;;4945943;28;19922;-67
2023/03/13 01:12:26;;;;;;;;;;;;;;;;;;4921252;28;20545;-67
2023/03/13 01:14:52;;;;;;;;;;;;;;;;;;4962404;28;19972;-67
2023/03/13 01:17:17;;;;;;;;;;;;;;;;;;4917445;28;20508;-67
2023/03/13 01:19:42;;;;;;;;;;;;;;;;;;4949681;28;19932;-66
2023/03/13 01:22:11;;;;;;;;;;;;;;;;;;4935940;28;20387;-66
2023/03/13 01:24:39;;;;;;;;;;;;;;;;;;4932939;28;19945;-67
2023/03/13 01:27:05;;;;;;;;;;;;;;;;;;4952899;28;20417;-67
2023/03/13 01:29:31;;;;;;;;;;;;;;;;;;4958694;28;19922;-66
2023/03/13 01:31:56;;;;;;;;;;;;;;;;;;4925222;28;20020;-66
2023/03/13 01:34:22;;;;;;;;;;;;;;;;;;4946068;28;19922;-66
2023/03/13 01:36:49;;;;;;;;;;;;;;;;;;4929628;28;19948;-67
2023/03/13 01:39:14;;;;;;;;;;;;;;;;;;4917211;28;19922;-66
2023/03/13 01:41:40;;;;;;;;;;;;;;;;;;4918711;28;19958;-66
2023/03/13 01:44:08;;;;;;;;;;;;;;;;;;4943838;28;20367;-67
2023/03/13 01:46:33;;;;;;;;;;;;;;;;;;4933416;28;19928;-66
2023/03/13 01:48:58;;;;;;;;;;;;;;;;;;4921328;28;19922;-66
2023/03/13 01:51:23;;;;;;;;;;;;;;;;;;4964142;28;19918;-67
2023/03/13 01:53:51;;;;;;;;;;;;;;;;;;4919661;28;20293;-69
2023/03/13 01:56:17;;;;;;;;;;;;;;;;;;4937509;28;19923;-69
2023/03/13 01:58:44;;;;;;;;;;;;;;;;;;4934096;28;20170;-69
2023/03/13 02:01:09;;;;;;;;;;;;;;;;;;4964411;28;20068;-67
2023/03/13 02:03:34;;;;;;;;;;;;;;;;;;4937918;28;20301;-67
2023/03/13 02:06:05;;;;;;;;;;;;;;;;;;4970682;28;19961;-67
2023/03/13 02:08:30;;;;;;;;;;;;;;;;;;4928834;28;19944;-67
2023/03/13 02:10:56;;;;;;;;;;;;;;;;;;4938155;28;20374;-67
2023/03/13 02:13:21;;;;;;;;;;;;;;;;;;4923964;28;19954;-67
2023/03/13 02:15:46;;;;;;;;;;;;;;;;;;4933246;28;19918;-67
2023/03/13 02:18:12;;;;;;;;;;;;;;;;;;4934765;28;20989;-68
2023/03/13 02:20:37;;;;;;;;;;;;;;;;;;4967219;28;20012;-66
2023/03/13 02:23:02;;;;;;;;;;;;;;;;;;4937627;28;19918;-65
2023/03/13 02:25:29;;;;;;;;;;;;;;;;;;4926930;28;19940;-64
2023/03/13 02:27:54;;;;;;;;;;;;;;;;;;4938191;28;20311;-64
2023/03/13 02:30:20;;;;;;;;;;;;;;;;;;4950565;28;19962;-64
2023/03/13 02:32:45;;;;;;;;;;;;;;;;;;4938899;28;20627;-63
2023/03/13 02:35:10;;;;;;;;;;;;;;;;;;4968003;28;20544;-63
2023/03/13 02:37:35;;;;;;;;;;;;;;;;;;4937716;28;19922;-63
2023/03/13 02:40:01;;;;;;;;;;;;;;;;;;4937902;28;20816;-63
2023/03/13 02:42:26;;;;;;;;;;;;;;;;;;4926651;28;20405;-63
2023/03/13 02:44:54;;;;;;;;;;;;;;;;;;4927115;28;20061;-62
2023/03/13 02:47:21;;;;;;;;;;;;;;;;;;4936310;28;20367;-63
2023/03/13 02:49:46;;;;;;;;;;;;;;;;;;4953116;28;19980;-64
2023/03/13 02:52:12;;;;;;;;;;;;;;;;;;4930829;28;20433;-65
2023/03/13 02:54:37;;;;;;;;;;;;;;;;;;4933021;28;20200;-64
2023/03/13 02:57:05;;;;;;;;;;;;;;;;;;4925397;28;19992;-65
2023/03/13 02:59:33;;;;;;;;;;;;;;;;;;4935027;28;19933;-65
2023/03/13 03:01:58;;;;;;;;;;;;;;;;;;4939190;28;20765;-62
2023/03/13 03:04:23;;;;;;;;;;;;;;;;;;4930038;28;20109;-63
2023/03/13 03:06:49;;;;;;;;;;;;;;;;;;4942915;28;19925;-63
2023/03/13 03:09:14;;;;;;;;;;;;;;;;;;4961797;28;19922;-62
2023/03/13 03:11:42;;;;;;;;;;;;;;;;;;4931578;28;19929;-63
2023/03/13 03:14:10;;;;;;;;;;;;;;;;;;4929698;28;19922;-63
2023/03/13 03:16:35;;;;;;;;;;;;;;;;;;4915026;28;19930;-64
2023/03/13 03:19:01;;;;;;;;;;;;;;;;;;4931542;28;19926;-65
2023/03/13 03:21:27;;;;;;;;;;;;;;;;;;4920923;28;19946;-65
2023/03/13 03:23:52;;;;;;;;;;;;;;;;;;4923075;28;19964;-65
2023/03/13 03:26:19;;;;;;;;;;;;;;;;;;4960422;28;19919;-64
2023/03/13 03:28:48;;;;;;;;;;;;;;;;;;4932319;28;20081;-63
2023/03/13 03:31:15;;;;;;;;;;;;;;;;;;4926790;28;20294;-64
2023/03/13 03:33:40;;;;;;;;;;;;;;;;;;4929292;28;19918;-64
2023/03/13 03:36:06;;;;;;;;;;;;;;;;;;4936687;28;20607;-65
2023/03/13 03:38:34;;;;;;;;;;;;;;;;;;4920897;28;20005;-63
2023/03/13 03:41:02;;;;;;;;;;;;;;;;;;4920408;28;20029;-64
2023/03/13 03:43:27;;;;;;;;;;;;;;;;;;4921994;28;19922;-64
2023/03/13 03:45:52;;;;;;;;;;;;;;;;;;4953952;28;19964;-67
2023/03/13 03:48:18;;;;;;;;;;;;;;;;;;4935183;28;19919;-67
2023/03/13 03:50:43;;;;;;;;;;;;;;;;;;4937217;28;19985;-64
2023/03/13 03:53:08;;;;;;;;;;;;;;;;;;4925646;28;20695;-65
2023/03/13 03:55:33;;;;;;;;;;;;;;;;;;4928318;28;20025;-66
2023/03/13 03:58:01;;;;;;;;;;;;;;;;;;4921372;28;19969;-65
2023/03/13 04:00:32;;;;;;;;;;;;;;;;;;4923730;28;19930;-65
2023/03/13 04:02:57;;;;;;;;;;;;;;;;;;4966504;28;19919;-65
2023/03/13 04:05:25;;;;;;;;;;;;;;;;;;4936915;28;20047;-64
2023/03/13 04:07:53;;;;;;;;;;;;;;;;;;4952287;28;19926;-66
2023/03/13 04:10:18;;;;;;;;;;;;;;;;;;4922733;28;20370;-67
2023/03/13 04:12:43;;;;;;;;;;;;;;;;;;4923973;28;19929;-65
2023/03/13 04:15:09;;;;;;;;;;;;;;;;;;4965066;28;20917;-65
2023/03/13 04:17:34;;;;;;;;;;;;;;;;;;4933688;28;20378;-66
2023/03/13 04:19:59;;;;;;;;;;;;;;;;;;4966450;28;19923;-66
2023/03/13 04:22:24;;;;;;;;;;;;;;;;;;4952346;28;19926;-67
2023/03/13 04:24:56;;;;;;;;;;;;;;;;;;4939828;28;19922;-65
2023/03/13 04:27:24;;;;;;;;;;;;;;;;;;4929426;28;19922;-65
2023/03/13 04:29:52;;;;;;;;;;;;;;;;;;4920455;28;20034;-67
2023/03/13 04:32:17;;;;;;;;;;;;;;;;;;4930738;28;20021;-65
2023/03/13 04:34:45;;;;;;;;;;;;;;;;;;4961322;28;19999;-66
2023/03/13 04:37:13;;;;;;;;;;;;;;;;;;4935770;28;20098;-65
2023/03/13 04:39:41;;;;;;;;;;;;;;;;;;4946381;28;19922;-64
2023/03/13 04:42:09;;;;;;;;;;;;;;;;;;4946402;28;19926;-65
2023/03/13 04:44:34;;;;;;;;;;;;;;;;;;4933062;28;20314;-64
2023/03/13 04:47:01;;;;;;;;;;;;;;;;;;4924878;28;19930;-67
2023/03/13 04:49:28;;;;;;;;;;;;;;;;;;4934790;28;19923;-66
2023/03/13 04:51:54;;;;;;;;;;;;;;;;;;4967079;28;19922;-66
2023/03/13 04:54:20;;;;;;;;;;;;;;;;;;4923838;28;19918;-66
2023/03/13 04:56:48;;;;;;;;;;;;;;;;;;4937901;28;20287;-65
2023/03/13 04:59:13;;;;;;;;;;;;;;;;;;4934988;28;20385;-66
2023/03/13 05:01:38;;;;;;;;;;;;;;;;;;4947908;28;20552;-65
2023/03/13 05:04:06;;;;;;;;;;;;;;;;;;4923362;28;19922;-65
2023/03/13 05:06:31;;;;;;;;;;;;;;;;;;4937574;28;20922;-66
2023/03/13 05:08:57;;;;;;;;;;;;;;;;;;4935072;28;20393;-66
2023/03/13 05:11:22;;;;;;;;;;;;;;;;;;4954592;28;20397;-66
2023/03/13 05:13:47;;;;;;;;;;;;;;;;;;4966845;28;19965;-64
2023/03/13 05:16:12;;;;;;;;;;;;;;;;;;4936820;28;20096;-64
2023/03/13 05:18:38;;;;;;;;;;;;;;;;;;4961271;28;20382;-64
2023/03/13 05:21:03;;;;;;;;;;;;;;;;;;4923160;28;19918;-66
2023/03/13 05:23:28;;;;;;;;;;;;;;;;;;4965983;28;19922;-65
2023/03/13 05:25:56;;;;;;;;;;;;;;;;;;4936806;28;19918;-66
2023/03/13 05:28:21;;;;;;;;;;;;;;;;;;4933514;28;19954;-65
2023/03/13 05:30:47;;;;;;;;;;;;;;;;;;4934578;28;20623;-64
2023/03/13 05:33:12;;;;;;;;;;;;;;;;;;4936137;28;19977;-64
2023/03/13 05:35:41;;;;;;;;;;;;;;;;;;4951908;28;20562;-69
2023/03/13 05:38:06;;;;;;;;;;;;;;;;;;4937496;28;19922;-67
2023/03/13 05:40:32;;;;;;;;;;;;;;;;;;4942350;28;20319;-65
2023/03/13 05:42:58;;;;;;;;;;;;;;;;;;4924693;28;20301;-69
2023/03/13 05:45:24;;;;;;;;;;;;;;;;;;4940867;28;19954;-66
2023/03/13 05:47:49;;;;;;;;;;;;;;;;;;4952071;28;19918;-66
2023/03/13 05:50:15;;;;;;;;;;;;;;;;;;4939964;28;20408;-65
2023/03/13 05:52:42;;;;;;;;;;;;;;;;;;4928902;28;20110;-67
2023/03/13 05:55:08;;;;;;;;;;;;;;;;;;4924568;28;19919;-66
2023/03/13 05:57:34;;;;;;;;;;;;;;;;;;4953147;28;20378;-66
2023/03/13 05:59:59;;;;;;;;;;;;;;;;;;4933345;28;19918;-65
2023/03/13 06:02:30;;;;;;;;;;;;;;;;;;4924902;28;19922;-67
2023/03/13 06:04:55;;;;;;;;;;;;;;;;;;4932574;28;20077;-66
2023/03/13 06:07:20;;;;;;;;;;;;;;;;;;4936133;28;19918;-61
2023/03/13 06:09:46;;;;;;;;;;;;;;;;;;4931213;28;20934;-66
2023/03/13 06:12:14;;;;;;;;;;;;;;;;;;4922858;28;19933;-65
2023/03/13 06:14:39;;;;;;;;;;;;;;;;;;4921037;28;20469;-64
2023/03/13 06:17:04;;;;;;;;;;;;;;;;;;4930412;28;19953;-65
2023/03/13 06:19:30;;;;;;;;;;;;;;;;;;4935726;28;20553;-67
2023/03/13 06:21:55;;;;;;;;;;;;;;;;;;4932781;28;20620;-67
2023/03/13 06:24:20;;;;;;;;;;;;;;;;;;4935347;28;19918;-64
2023/03/13 06:26:45;;;;;;;;;;;;;;;;;;4937795;28;20649;-65
2023/03/13 06:29:11;;;;;;;;;;;;;;;;;;4937927;28;20428;-65
2023/03/13 06:31:36;;;;;;;;;;;;;;;;;;4925531;28;19922;-64
2023/03/13 06:34:04;;;;;;;;;;;;;;;;;;4924220;28;20405;-67
2023/03/13 06:36:29;;;;;;;;;;;;;;;;;;4949508;28;19926;-67
2023/03/13 06:38:57;;;;;;;;;;;;;;;;;;4934261;28;19923;-66
2023/03/13 06:41:26;;;;;;;;;;;;;;;;;;4936530;28;19977;-65
2023/03/13 06:43:51;;;;;;;;;;;;;;;;;;4936984;28;20181;-71
2023/03/13 06:46:17;;;;;;;;;;;;;;;;;;4923498;28;19933;-67
2023/03/13 06:48:43;;;;;;;;;;;;;;;;;;4932497;28;19926;-68
2023/03/13 06:51:08;;;;;;;;;;;;;;;;;;4938003;28;20409;-66
2023/03/13 06:53:36;;;;;;;;;;;;;;;;;;4935634;28;19922;-66
2023/03/13 06:56:01;;;;;;;;;;;;;;;;;;4937362;28;19922;-65
2023/03/13 06:58:27;;;;;;;;;;;;;;;;;;4969495;28;19932;-68
2023/03/13 07:00:55;;;;;;;;;;;;;;;;;;4936075;28;20048;-69
2023/03/13 07:03:23;;;;;;;;;;;;;;;;;;4932009;28;19930;-67
2023/03/13 07:05:49;;;;;;;;;;;;;;;;;;4936603;28;20538;-67
2023/03/13 07:08:14;;;;;;;;;;;;;;;;;;4920069;28;19922;-68
2023/03/13 07:10:39;;;;;;;;;;;;;;;;;;4919062;28;19922;-69
2023/03/13 07:13:05;;;;;;;;;;;;;;;;;;4933706;28;19919;-67
2023/03/13 07:15:30;;;;;;;;;;;;;;;;;;4925525;28;20122;-70
2023/03/13 07:17:58;;;;;;;;;;;;;;;;;;4935311;28;19933;-65
2023/03/13 07:20:23;;;;;;;;;;;;;;;;;;4935189;28;20293;-69
2023/03/13 07:22:48;;;;;;;;;;;;;;;;;;4940792;28;20157;-66
2023/03/13 07:25:13;;;;;;;;;;;;;;;;;;4949813;28;19948;-67
2023/03/13 07:27:39;;;;;;;;;;;;;;;;;;4936178;28;20064;-66
2023/03/13 07:30:04;;;;;;;;;;;;;;;;;;4935221;28;19926;-69
2023/03/13 07:32:32;;;;;;;;;;;;;;;;;;4949887;28;19922;-67
2023/03/13 07:34:58;;;;;;;;;;;;;;;;;;4926955;28;19928;-67
2023/03/13 07:37:28;;;;;;;;;;;;;;;;;;4936021;28;19936;-65
2023/03/13 07:39:56;;;;;;;;;;;;;;;;;;4933996;28;20049;-65
2023/03/13 07:42:24;;;;;;;;;;;;;;;;;;4934565;28;19926;-66
2023/03/13 07:44:49;;;;;;;;;;;;;;;;;;4934566;28;19930;-66
2023/03/13 07:47:14;;;;;;;;;;;;;;;;;;4931694;28;19990;-66
2023/03/13 07:49:45;;;;;;;;;;;;;;;;;;4936783;28;19918;-65
2023/03/13 07:52:12;;;;;;;;;;;;;;;;;;4937045;28;19925;-66
2023/03/13 07:54:40;;;;;;;;;;;;;;;;;;4936919;28;19918;-67
2023/03/13 07:57:08;;;;;;;;;;;;;;;;;;4934083;28;19929;-65
2023/03/13 07:59:33;;;;;;;;;;;;;;;;;;4935824;28;19918;-68
2023/03/13 08:02:04;;;;;;;;;;;;;;;;;;4953021;28;19925;-67
2023/03/13 08:04:32;;;;;;;;;;;;;;;;;;4920681;28;19918;-67
2023/03/13 08:07:00;;;;;;;;;;;;;;;;;;4923004;28;19945;-67
2023/03/13 08:09:26;;;;;;;;;;;;;;;;;;4936288;28;19914;-66
2023/03/13 08:11:53;;;;;;;;;;;;;;;;;;4923886;28;19922;-65
2023/03/13 08:14:21;;;;;;;;;;;;;;;;;;4933754;28;20769;-65
2023/03/13 08:16:47;;;;;;;;;;;;;;;;;;4933012;28;19918;-67
2023/03/13 08:19:12;;;;;;;;;;;;;;;;;;4932650;28;19996;-67
2023/03/13 08:21:37;;;;;;;;;;;;;;;;;;4935947;28;19918;-66
2023/03/13 08:24:04;;;;;;;;;;;;;;;;;;4938253;28;19918;-66
2023/03/13 08:26:30;;;;;;;;;;;;;;;;;;4964928;28;19918;-64
2023/03/13 08:28:55;;;;;;;;;;;;;;;;;;4922032;28;20260;-65
2023/03/13 08:31:22;;;;;;;;;;;;;;;;;;4935607;28;20386;-66
2023/03/13 08:33:51;;;;;;;;;;;;;;;;;;4935170;28;19927;-66
2023/03/13 08:36:16;;;;;;;;;;;;;;;;;;4922752;28;19927;-67
2023/03/13 08:38:43;;;;;;;;;;;;;;;;;;4949026;28;19925;-67
2023/03/13 08:41:08;;;;;;;;;;;;;;;;;;4946525;28;20418;-64
2023/03/13 08:43:33;;;;;;;;;;;;;;;;;;4934079;28;21901;-66
2023/03/13 08:46:01;;;;;;;;;;;;;;;;;;4934802;28;19921;-65
2023/03/13 08:48:27;;;;;;;;;;;;;;;;;;4937811;28;19918;-66
2023/03/13 08:50:54;;;;;;;;;;;;;;;;;;4937238;28;20370;-67
2023/03/13 08:53:20;;;;;;;;;;;;;;;;;;4950046;28;19977;-67
2023/03/13 08:55:45;;;;;;;;;;;;;;;;;;4932248;28;19961;-67
2023/03/13 08:58:10;;;;;;;;;;;;;;;;;;4935298;28;21494;-67
2023/03/13 09:00:38;;;;;;;;;;;;;;;;;;4933738;28;20422;-66
2023/03/13 09:03:04;;;;;;;;;;;;;;;;;;4947754;28;19922;-69
2023/03/13 09:05:29;;;;;;;;;;;;;;;;;;4934722;28;19971;-67
2023/03/13 09:07:55;;;;;;;;;;;;;;;;;;4963595;28;20389;-70
2023/03/13 09:10:20;;;;;;;;;;;;;;;;;;4937533;28;19933;-67
2023/03/13 09:12:47;;;;;;;;;;;;;;;;;;4933176;28;19919;-68
2023/03/13 09:15:15;;;;;;;;;;;;;;;;;;4952405;28;19933;-67
2023/03/13 09:17:40;;;;;;;;;;;;;;;;;;4932893;28;19926;-69
2023/03/13 09:20:06;;;;;;;;;;;;;;;;;;4934220;28;20345;-68
2023/03/13 09:22:32;;;;;;;;;;;;;;;;;;4934938;28;20208;-71
2023/03/13 09:24:57;;;;;;;;;;;;;;;;;;4920125;28;20770;-71
2023/03/13 09:27:22;;;;;;;;;;;;;;;;;;4936601;28;19918;-70
2023/03/13 09:29:48;;;;;;;;;;;;;;;;;;4936845;28;21442;-68
2023/03/13 09:32:13;;;;;;;;;;;;;;;;;;4935704;28;20298;-67
2023/03/13 09:34:39;;;;;;;;;;;;;;;;;;4936971;28;19923;-68
2023/03/13 09:37:04;;;;;;;;;;;;;;;;;;4934981;28;20374;-67
2023/03/13 09:39:32;;;;;;;;;;;;;;;;;;4930276;28;19922;-67
2023/03/13 09:42:00;;;;;;;;;;;;;;;;;;4921054;28;19926;-67
2023/03/13 09:44:25;;;;;;;;;;;;;;;;;;4966593;28;19923;-67
2023/03/13 09:46:51;;;;;;;;;;;;;;;;;;4931753;28;20009;-66
2023/03/13 09:49:16;;;;;;;;;;;;;;;;;;4933977;28;19927;-69
2023/03/13 09:51:41;;;;;;;;;;;;;;;;;;4948912;28;19933;-68
2023/03/13 09:54:07;;;;;;;;;;;;;;;;;;4921854;28;21765;-66
2023/03/13 09:56:34;;;;;;;;;;;;;;;;;;4937377;28;19922;-67
2023/03/13 09:59:00;;;;;;;;;;;;;;;;;;4922806;28;19952;-66
2023/03/13 10:01:28;;;;;;;;;;;;;;;;;;4930872;28;20569;-68
2023/03/13 10:07:13;;;;;;;;;;;;;;;;;;4935840;28;20445;-66
2023/03/13 10:09:39;;;;;;;;;;;;;;;;;;4938240;28;19926;-68
2023/03/13 10:12:04;;;;;;;;;;;;;;;;;;4934924;28;20004;-69
2023/03/13 10:14:33;;;;;;;;;;;;;;;;;;4935136;28;20004;-68
2023/03/13 10:17:01;;;;;;;;;;;;;;;;;;4933874;28;20847;-71
2023/03/13 10:19:27;;;;;;;;;;;;;;;;;;4947310;28;19923;-70
2023/03/13 10:21:55;;;;;;;;;;;;;;;;;;4950235;28;19921;-68
2023/03/13 10:24:23;;;;;;;;;;;;;;;;;;4941895;28;19929;-71
2023/03/13 10:26:48;;;;;;;;;;;;;;;;;;4968977;28;20306;-73
2023/03/13 10:29:16;;;;;;;;;;;;;;;;;;4951770;28;20298;-67
2023/03/13 10:31:41;;;;;;;;;;;;;;;;;;4939838;28;19925;-69
2023/03/13 10:34:06;;;;;;;;;;;;;;;;;;4939520;28;19922;-68
2023/03/13 10:36:31;;;;;;;;;;;;;;;;;;4934356;28;20290;-69
2023/03/13 10:38:59;;;;;;;;;;;;;;;;;;4939879;28;20121;-71
2023/03/13 10:41:25;;;;;;;;;;;;;;;;;;4943490;28;20010;-74
2023/03/13 10:43:51;;;;;;;;;;;;;;;;;;4942293;28;20155;-67
2023/03/13 10:46:19;;;;;;;;;;;;;;;;;;4938151;28;20795;-70
2023/03/13 10:48:47;;;;;;;;;;;;;;;;;;4936104;28;19922;-68
2023/03/13 10:54:07;;;;;;;;;;;;;;;;;;4968172;28;19922;-76
2023/03/13 10:56:32;;;;;;;;;;;;;;;;;;4938513;28;19925;-72
2023/03/13 10:58:58;;;;;;;;;;;;;;;;;;4936514;28;20509;-70
2023/03/13 11:01:23;;;;;;;;;;;;;;;;;;4938279;28;19929;-70
2023/03/13 11:03:49;;;;;;;;;;;;;;;;;;4924497;28;20310;-74
2023/03/13 11:09:04;;;;;;;;;;;;;;;;;;4936410;28;19976;-75
2023/03/13 11:11:30;;;;;;;;;;;;;;;;;;4926970;28;19918;-74
2023/03/13 11:13:55;;;;;;;;;;;;;;;;;;4935885;28;20807;-70
2023/03/13 11:16:20;;;;;;;;;;;;;;;;;;4965325;28;20427;-72
2023/03/13 11:18:46;;;;;;;;;;;;;;;;;;4934850;28;19922;-71
2023/03/13 11:21:11;;;;;;;;;;;;;;;;;;4934292;28;20576;-70
2023/03/13 11:30:09;;;;;;;;;;;;;;;;;;4937990;28;19932;-69
2023/03/13 11:32:35;;;;;;;;;;;;;;;;;;4933256;28;19954;-70
2023/03/13 11:35:00;;;;;;;;;;;;;;;;;;4938614;28;19981;-73
2023/03/13 11:37:26;;;;;;;;;;;;;;;;;;4936283;28;19918;-72
2023/03/13 11:39:54;;;;;;;;;;;;;;;;;;4954082;28;19929;-68
2023/03/13 11:42:19;;;;;;;;;;;;;;;;;;4924742;28;19926;-68
2023/03/13 11:44:44;;;;;;;;;;;;;;;;;;4932639;28;20458;-72
2023/03/13 11:47:12;;;;;;;;;;;;;;;;;;4936928;28;20037;-70
2023/03/13 11:49:37;;;;;;;;;;;;;;;;;;4936299;28;19922;-70
2023/03/13 11:52:07;;;;;;;;;;;;;;;;;;4936767;28;21351;-69
2023/03/13 11:54:33;;;;;;;;;;;;;;;;;;4937791;28;20025;-71
2023/03/13 11:57:00;;;;;;;;;;;;;;;;;;4937440;28;20222;-69
2023/03/13 11:59:26;;;;;;;;;;;;;;;;;;4936605;28;19922;-70
2023/03/13 12:01:51;;;;;;;;;;;;;;;;;;4935137;28;19976;-68
2023/03/13 12:04:19;;;;;;;;;;;;;;;;;;4933978;28;20230;-70
2023/03/13 12:06:46;;;;;;;;;;;;;;;;;;4935162;28;20382;-70
2023/03/13 12:09:33;;;;;;;;;;;;;;;;;;4936740;28;21174;-72
2023/03/13 12:12:02;;;;;;;;;;;;;;;;;;4925279;28;19969;-68
2023/03/13 12:14:32;;;;;;;;;;;;;;;;;;4926383;28;20021;-69
2023/03/13 12:16:58;;;;;;;;;;;;;;;;;;4952587;28;20204;-73
2023/03/13 12:19:23;;;;;;;;;;;;;;;;;;4926974;28;19996;-68
2023/03/13 12:28:28;;;;;;;;;;;;;;;;;;4934987;28;19969;-68
2023/03/13 12:30:53;;;;;;;;;;;;;;;;;;4950179;28;19968;-68
2023/03/13 12:33:19;;;;;;;;;;;;;;;;;;4948831;28;20597;-71
2023/03/13 12:35:45;;;;;;;;;;;;;;;;;;4922755;28;19923;-70
2023/03/13 12:38:11;;;;;;;;;;;;;;;;;;4933757;28;19957;-69
2023/03/13 12:40:36;;;;;;;;;;;;;;;;;;4925148;28;20092;-69
2023/03/13 12:43:11;;;;;;;;;;;;;;;;;;4938429;28;19930;-71
2023/03/13 12:45:36;;;;;;;;;;;;;;;;;;4919892;28;19922;-67
2023/03/13 12:48:01;;;;;;;;;;;;;;;;;;4935189;28;20868;-72
2023/03/13 12:50:29;;;;;;;;;;;;;;;;;;4937372;28;20511;-66
2023/03/13 12:52:55;;;;;;;;;;;;;;;;;;4935038;28;19922;-67
2023/03/13 12:55:20;;;;;;;;;;;;;;;;;;4936811;28;19926;-68
2023/03/13 12:57:45;;;;;;;;;;;;;;;;;;4919296;28;20003;-67
2023/03/13 13:00:13;;;;;;;;;;;;;;;;;;4926002;28;20165;-68
2023/03/13 13:02:41;;;;;;;;;;;;;;;;;;4931927;28;19925;-72
2023/03/13 13:05:07;;;;;;;;;;;;;;;;;;4967355;28;19923;-66
2023/03/13 13:07:32;;;;;;;;;;;;;;;;;;4922032;28;19932;-70
2023/03/13 13:13:14;;;;;;;;;;;;;;;;;;4934780;28;19924;-68
2023/03/13 13:15:39;;;;;;;;;;;;;;;;;;4921349;28;20201;-69
2023/03/13 13:18:05;;;;;;;;;;;;;;;;;;4934172;28;20334;-67
2023/03/13 13:20:33;;;;;;;;;;;;;;;;;;4925133;28;19933;-74
2023/03/13 13:22:58;;;;;;;;;;;;;;;;;;4932906;28;19922;-70
2023/03/13 13:25:26;;;;;;;;;;;;;;;;;;4932695;28;19922;-70
2023/03/13 13:27:51;;;;;;;;;;;;;;;;;;4933602;28;20409;-71
2023/03/13 13:30:17;;;;;;;;;;;;;;;;;;4925040;28;19922;-69
2023/03/13 13:32:42;;;;;;;;;;;;;;;;;;4933925;28;19922;-66
2023/03/13 13:35:07;;;;;;;;;;;;;;;;;;4950525;28;19922;-69
2023/03/13 13:37:33;;;;;;;;;;;;;;;;;;4934944;28;19918;-68
2023/03/13 13:39:58;;;;;;;;;;;;;;;;;;4933612;28;19923;-69
2023/03/13 13:42:26;;;;;;;;;;;;;;;;;;4935018;28;20585;-69
2023/03/13 13:48:08;;;;;;;;;;;;;;;;;;4934420;28;19929;-69
2023/03/13 13:50:49;;;;;;;;;;;;;;;;;;4963485;28;20378;-68
2023/03/13 13:53:17;;;;;;;;;;;;;;;;;;4927989;28;19926;-69
2023/03/13 13:55:42;;;;;;;;;;;;;;;;;;4950777;28;19922;-71
2023/03/13 13:58:10;;;;;;;;;;;;;;;;;;4947626;28;20051;-71
2023/03/13 14:00:35;;;;;;;;;;;;;;;;;;4933627;28;19926;-69
2023/03/13 14:03:03;;;;;;;;;;;;;;;;;;4926954;28;20282;-72
2023/03/13 14:05:29;;;;;;;;;;;;;;;;;;4930709;28;19918;-68
2023/03/13 14:07:54;;;;;;;;;;;;;;;;;;4932074;28;20421;-69
2023/03/13 14:10:20;;;;;;;;;;;;;;;;;;4936026;28;20419;-71
2023/03/13 14:12:45;;;;;;;;;;;;;;;;;;4925543;28;19964;-69
2023/03/13 14:15:10;;;;;;;;;;;;;;;;;;4936831;28;19964;-72
2023/03/13 14:17:36;;;;;;;;;;;;;;;;;;4968105;28;19929;-69
2023/03/13 14:20:03;;;;;;;;;;;;;;;;;;4967961;28;19925;-68
2023/03/13 14:22:41;;;;;;;;;;;;;;;;;;4955498;28;19984;-68
2023/03/13 14:28:23;;;;;;;;;;;;;;;;;;4936998;28;19933;-69
2023/03/13 14:30:51;;;;;;;;;;;;;;;;;;4948658;28;19973;-68
2023/03/13 14:33:16;;;;;;;;;;;;;;;;;;4945181;28;19949;-68
2023/03/13 14:35:42;;;;;;;;;;;;;;;;;;4934160;28;20321;-67
2023/03/13 14:38:07;;;;;;;;;;;;;;;;;;4931946;28;20361;-69
2023/03/13 14:43:51;;;;;;;;;;;;;;;;;;4938939;28;19937;-67
2023/03/13 14:46:17;;;;;;;;;;;;;;;;;;4932754;28;19922;-70
2023/03/13 14:48:42;;;;;;;;;;;;;;;;;;4924406;28;20405;-67
2023/03/13 14:51:07;;;;;;;;;;;;;;;;;;4965904;28;19935;-72
2023/03/13 14:53:33;;;;;;;;;;;;;;;;;;4933699;28;19923;-69
2023/03/13 14:55:58;;;;;;;;;;;;;;;;;;4930336;28;19923;-67
2023/03/13 14:58:24;;;;;;;;;;;;;;;;;;4967766;28;19972;-68
2023/03/13 15:00:52;;;;;;;;;;;;;;;;;;4922191;28;20294;-67
2023/03/13 15:03:20;;;;;;;;;;;;;;;;;;4921689;28;19970;-68
2023/03/13 15:05:45;;;;;;;;;;;;;;;;;;4936740;28;19918;-69
2023/03/13 15:08:11;;;;;;;;;;;;;;;;;;4938556;28;19926;-66
2023/03/13 15:10:39;;;;;;;;;;;;;;;;;;4935764;28;21100;-69
2023/03/13 15:13:05;;;;;;;;;;;;;;;;;;4935993;28;20061;-69
2023/03/13 15:15:33;;;;;;;;;;;;;;;;;;4967291;28;19949;-72
2023/03/13 15:17:58;;;;;;;;;;;;;;;;;;4934608;28;19992;-68
2023/03/13 15:20:24;;;;;;;;;;;;;;;;;;4933274;28;19981;-68
2023/03/13 15:22:49;;;;;;;;;;;;;;;;;;4934008;28;19922;-68
2023/03/13 15:25:17;;;;;;;;;;;;;;;;;;4923200;28;20407;-67
2023/03/13 15:27:42;;;;;;;;;;;;;;;;;;4937970;28;19929;-73
2023/03/13 15:30:12;;;;;;;;;;;;;;;;;;4932684;28;19997;-67
2023/03/13 15:32:41;;;;;;;;;;;;;;;;;;4935078;28;19922;-73
2023/03/13 15:35:07;;;;;;;;;;;;;;;;;;4953053;28;20237;-70
2023/03/13 15:37:34;;;;;;;;;;;;;;;;;;4930120;28;20259;-69
2023/03/13 15:40:01;;;;;;;;;;;;;;;;;;4961969;28;19918;-68
2023/03/13 15:42:29;;;;;;;;;;;;;;;;;;4934102;28;20538;-65
2023/03/13 15:44:54;;;;;;;;;;;;;;;;;;4953697;28;20442;-67
2023/03/13 15:47:20;;;;;;;;;;;;;;;;;;4931423;28;20891;-67
2023/03/13 15:49:48;;;;;;;;;;;;;;;;;;4920978;28;19938;-64
2023/03/13 15:52:16;;;;;;;;;;;;;;;;;;4932574;28;19953;-64
2023/03/13 15:54:41;;;;;;;;;;;;;;;;;;4963404;28;20247;-65
2023/03/13 15:57:07;;;;;;;;;;;;;;;;;;4926585;28;19922;-64
2023/03/13 15:59:35;;;;;;;;;;;;;;;;;;4944548;28;19929;-66
2023/03/13 16:02:00;;;;;;;;;;;;;;;;;;4964227;28;19922;-68
2023/03/13 16:04:26;;;;;;;;;;;;;;;;;;4932395;28;21023;-66
2023/03/13 16:06:51;;;;;;;;;;;;;;;;;;4931058;28;19919;-63
2023/03/13 16:09:16;;;;;;;;;;;;;;;;;;4928192;28;20079;-67
2023/03/13 16:11:45;;;;;;;;;;;;;;;;;;4934425;28;20377;-63
2023/03/13 16:14:10;;;;;;;;;;;;;;;;;;4921704;28;19926;-68
2023/03/13 16:16:38;;;;;;;;;;;;;;;;;;4932359;28;19922;-66
2023/03/13 16:19:03;;;;;;;;;;;;;;;;;;4946359;28;19942;-66
2023/03/13 16:21:34;;;;;;;;;;;;;;;;;;4960059;28;20474;-64
2023/03/13 16:24:00;;;;;;;;;;;;;;;;;;4928468;28;20263;-66
2023/03/13 16:26:25;;;;;;;;;;;;;;;;;;4932354;28;19929;-64
2023/03/13 16:28:54;;;;;;;;;;;;;;;;;;4932880;28;19933;-66
2023/03/13 16:31:19;;;;;;;;;;;;;;;;;;4915564;28;19927;-65
2023/03/13 16:33:44;;;;;;;;;;;;;;;;;;4934481;28;20394;-64
2023/03/13 16:36:15;;;;;;;;;;;;;;;;;;4928732;28;20019;-65
2023/03/13 16:38:43;;;;;;;;;;;;;;;;;;4917671;28;19998;-64
2023/03/13 16:41:14;;;;;;;;;;;;;;;;;;4960699;28;19956;-66
2023/03/13 16:43:39;;;;;;;;;;;;;;;;;;4922511;28;19941;-64
2023/03/13 16:46:05;;;;;;;;;;;;;;;;;;4928873;28;19923;-66
2023/03/13 16:48:30;;;;;;;;;;;;;;;;;;4934990;28;20557;-65
2023/03/13 16:50:55;;;;;;;;;;;;;;;;;;4934752;28;19918;-65
2023/03/13 16:53:21;;;;;;;;;;;;;;;;;;4936560;28;19926;-68
2023/03/13 16:55:51;;;;;;;;;;;;;;;;;;4935434;28;19969;-65
2023/03/13 16:58:19;;;;;;;;;;;;;;;;;;4932876;28;20413;-66
2023/03/13 17:00:44;;;;;;;;;;;;;;;;;;4934896;28;20080;-65
2023/03/13 17:03:10;;;;;;;;;;;;;;;;;;4910076;28;20304;-68
2023/03/13 17:05:38;;;;;;;;;;;;;;;;;;4931643;28;20009;-66
2023/03/13 17:08:03;;;;;;;;;;;;;;;;;;4926997;28;20607;-66
2023/03/13 17:10:29;;;;;;;;;;;;;;;;;;4945795;28;19922;-67
2023/03/13 17:12:54;;;;;;;;;;;;;;;;;;4947412;28;19922;-66
2023/03/13 17:15:22;;;;;;;;;;;;;;;;;;4932246;28;19922;-68